Time;durP1;ratioP1;P1;durP2;ratioP2;P2;SDS_P1;SDS_P2;PMS_P1;PMS_P2;Temp;Humidity;BMP_temperature;BMP_pressure;BME280_temperature;BME280_humidity;BME280_pressure;Samples;Min_cycle;Max_cycle;Signal;HPM_P1;HPM_P2
2023/07/14 00:01:26;;;;;;;14.57;10.27;;;16.60;99.90;;;;;;4964601;28;20454;-65
2023/07/14 00:03:53;;;;;;;15.35;10.95;;;16.70;99.90;;;;;;4968734;28;20582;-63
2023/07/14 00:06:20;;;;;;;13.13;10.43;;;16.70;99.90;;;;;;4942899;28;20462;-65
2023/07/14 00:08:47;;;;;;;14.43;10.30;;;16.60;99.90;;;;;;4971214;28;20408;-64
2023/07/14 00:11:19;;;;;;;14.68;10.38;;;16.60;99.90;;;;;;4965253;28;20429;-65
2023/07/14 00:13:45;;;;;;;14.55;10.88;;;16.60;99.90;;;;;;5016986;28;20765;-66
2023/07/14 00:16:16;;;;;;;13.85;10.30;;;16.70;99.90;;;;;;4953647;28;20414;-65
2023/07/14 00:18:42;;;;;;;16.08;10.98;;;16.60;99.90;;;;;;5034904;28;20822;-66
2023/07/14 00:21:22;;;;;;;14.13;10.73;;;16.60;99.90;;;;;;5002025;28;20429;-66
2023/07/14 00:23:49;;;;;;;15.80;11.15;;;16.60;99.90;;;;;;4991245;28;20427;-66
2023/07/14 00:26:20;;;;;;;13.15;10.30;;;16.60;99.90;;;;;;4993736;28;20429;-63
2023/07/14 00:28:48;;;;;;;14.98;10.15;;;16.60;99.90;;;;;;4973522;28;20408;-66
2023/07/14 00:31:16;;;;;;;17.08;10.88;;;16.50;99.90;;;;;;4957141;28;20422;-66
2023/07/14 00:33:43;;;;;;;12.55;10.10;;;16.50;99.90;;;;;;4972566;28;20433;-66
2023/07/14 00:36:14;;;;;;;15.18;10.23;;;16.50;99.90;;;;;;4989892;28;20756;-66
2023/07/14 00:38:39;;;;;;;14.32;9.70;;;16.50;99.90;;;;;;4964549;28;20448;-66
2023/07/14 00:41:14;;;;;;;13.00;9.93;;;16.50;99.90;;;;;;4966480;28;20434;-65
2023/07/14 00:43:40;;;;;;;11.55;9.60;;;16.50;99.90;;;;;;4976696;28;20442;-66
2023/07/14 00:46:05;;;;;;;13.75;9.45;;;16.50;99.90;;;;;;4975902;28;20508;-65
2023/07/14 00:48:32;;;;;;;13.63;9.68;;;16.50;99.90;;;;;;4960049;28;20578;-65
2023/07/14 00:51:11;;;;;;;14.80;10.00;;;16.50;99.90;;;;;;4953407;28;20422;-64
2023/07/14 00:53:40;;;;;;;13.60;9.23;;;16.50;99.90;;;;;;5034633;28;20483;-66
2023/07/14 00:56:15;;;;;;;11.25;9.23;;;16.50;99.90;;;;;;5031024;28;20418;-65
2023/07/14 00:58:46;;;;;;;13.93;9.55;;;16.50;99.90;;;;;;5030273;28;20923;-65
2023/07/14 01:01:21;;;;;;;14.23;9.35;;;16.50;99.90;;;;;;4985780;28;20410;-66
2023/07/14 01:03:50;;;;;;;13.23;8.75;;;16.40;99.90;;;;;;4988674;28;20489;-66
2023/07/14 01:06:19;;;;;;;11.25;9.00;;;16.40;99.90;;;;;;4992245;28;20395;-66
2023/07/14 01:08:56;;;;;;;12.33;9.10;;;16.40;99.90;;;;;;4962944;28;20495;-62
2023/07/14 01:11:34;;;;;;;11.02;8.68;;;16.30;99.90;;;;;;4938415;28;20462;-65
2023/07/14 01:14:04;;;;;;;11.45;9.18;;;16.30;99.90;;;;;;5017070;28;20771;-63
2023/07/14 01:16:31;;;;;;;11.00;8.60;;;16.30;99.90;;;;;;4969820;28;20526;-66
2023/07/14 01:18:58;;;;;;;11.45;8.48;;;16.30;99.90;;;;;;4969406;28;20745;-66
2023/07/14 01:21:25;;;;;;;12.60;8.57;;;16.30;99.90;;;;;;4943081;28;20837;-65
2023/07/14 01:23:56;;;;;;;11.88;8.52;;;16.20;99.90;;;;;;4985075;28;20422;-65
2023/07/14 01:26:43;;;;;;;12.07;8.68;;;16.20;99.90;;;;;;4970378;28;20432;-66
2023/07/14 01:29:09;;;;;;;14.05;9.05;;;16.20;99.90;;;;;;4966829;28;20399;-66
2023/07/14 01:31:35;;;;;;;13.37;8.17;;;16.00;99.90;;;;;;4961259;28;20411;-66
2023/07/14 01:34:02;;;;;;;11.68;8.57;;;16.20;99.90;;;;;;4997508;28;20405;-66
2023/07/14 01:36:28;;;;;;;12.85;8.93;;;16.10;99.90;;;;;;4992620;28;20955;-66
2023/07/14 01:38:54;;;;;;;12.52;8.70;;;16.10;99.90;;;;;;4976695;28;20491;-66
2023/07/14 01:41:20;;;;;;;13.80;9.05;;;16.10;99.90;;;;;;5023822;28;20413;-65
2023/07/14 01:43:47;;;;;;;12.57;8.70;;;16.00;99.90;;;;;;4967662;28;20434;-65
2023/07/14 01:46:21;;;;;;;12.80;8.55;;;16.00;99.90;;;;;;4978444;28;20410;-66
2023/07/14 01:48:59;;;;;;;11.88;8.55;;;16.00;99.90;;;;;;4974753;28;20478;-65
2023/07/14 01:51:31;;;;;;;11.45;8.85;;;16.00;99.90;;;;;;4975630;28;20803;-65
2023/07/14 01:54:05;;;;;;;12.20;8.77;;;16.00;99.90;;;;;;4980176;28;20485;-66
2023/07/14 01:56:32;;;;;;;11.40;8.43;;;16.00;99.90;;;;;;4955870;28;20426;-66
2023/07/14 01:59:10;;;;;;;12.73;9.00;;;15.90;99.90;;;;;;4980205;28;20509;-64
2023/07/14 02:01:39;;;;;;;12.88;8.23;;;15.90;99.90;;;;;;4989978;28;20516;-65
2023/07/14 02:04:07;;;;;;;10.93;8.38;;;15.90;99.90;;;;;;4973059;28;20426;-66
2023/07/14 02:06:33;;;;;;;12.15;8.88;;;16.00;99.90;;;;;;4983140;28;20520;-66
2023/07/14 02:08:59;;;;;;;11.52;8.02;;;15.90;99.90;;;;;;4958911;28;20432;-66
2023/07/14 02:11:26;;;;;;;13.52;8.57;;;15.90;99.90;;;;;;4982659;28;20915;-66
2023/07/14 02:13:55;;;;;;;10.88;8.13;;;15.80;99.90;;;;;;4981501;28;20464;-65
2023/07/14 02:16:22;;;;;;;11.95;8.90;;;15.90;99.90;;;;;;4980863;28;20465;-66
2023/07/14 02:18:48;;;;;;;10.55;8.48;;;15.80;99.90;;;;;;4962154;28;20457;-66
2023/07/14 02:21:24;;;;;;;14.63;8.75;;;15.80;99.90;;;;;;4993283;28;20450;-66
2023/07/14 02:23:50;;;;;;;11.20;8.67;;;15.80;99.90;;;;;;5008418;28;20830;-66
2023/07/14 02:26:33;;;;;;;16.13;9.20;;;15.80;99.90;;;;;;4978950;28;20518;-66
2023/07/14 02:28:59;;;;;;;12.33;8.37;;;15.80;99.90;;;;;;5002202;28;20919;-65
2023/07/14 02:31:44;;;;;;;12.57;8.83;;;15.80;99.90;;;;;;4976739;28;20432;-66
2023/07/14 02:34:14;;;;;;;11.63;8.40;;;15.70;99.90;;;;;;4980187;28;20932;-66
2023/07/14 02:37:01;;;;;;;12.68;8.60;;;15.80;99.90;;;;;;4987333;28;20920;-65
2023/07/14 02:39:33;;;;;;;12.95;8.55;;;15.90;99.90;;;;;;4953768;28;20421;-66
2023/07/14 02:42:00;;;;;;;10.75;8.32;;;15.80;99.90;;;;;;4978112;28;20434;-66
2023/07/14 02:44:36;;;;;;;11.43;8.40;;;15.70;99.90;;;;;;4980487;28;20791;-65
2023/07/14 02:47:05;;;;;;;11.13;8.10;;;15.70;99.90;;;;;;4986361;28;20410;-65
2023/07/14 02:49:31;;;;;;;12.43;8.38;;;15.70;99.90;;;;;;4989091;28;20428;-66
2023/07/14 02:51:57;;;;;;;10.80;8.27;;;15.70;99.90;;;;;;5005173;28;20472;-65
2023/07/14 02:54:24;;;;;;;10.67;8.60;;;15.70;99.90;;;;;;4975049;28;20412;-66
2023/07/14 02:56:51;;;;;;;10.20;8.73;;;15.70;99.90;;;;;;4983978;28;20486;-66
2023/07/14 02:59:18;;;;;;;12.53;8.70;;;15.70;99.90;;;;;;4974479;28;20422;-65
2023/07/14 03:01:43;;;;;;;13.23;8.80;;;15.70;99.90;;;;;;4977082;28;20440;-65
2023/07/14 03:04:09;;;;;;;11.20;8.13;;;15.70;99.90;;;;;;4974972;28;20462;-62
2023/07/14 03:06:35;;;;;;;11.02;8.15;;;15.70;99.90;;;;;;5011918;28;20923;-66
2023/07/14 03:09:01;;;;;;;12.70;8.70;;;15.70;99.90;;;;;;4989152;28;20472;-66
2023/07/14 03:11:27;;;;;;;12.00;7.97;;;15.70;99.90;;;;;;4977401;28;21082;-65
2023/07/14 03:13:52;;;;;;;11.13;8.27;;;15.60;99.90;;;;;;4978550;28;20439;-66
2023/07/14 03:16:19;;;;;;;10.60;8.50;;;15.60;99.90;;;;;;4981634;28;20412;-66
2023/07/14 03:18:44;;;;;;;10.15;8.10;;;15.60;99.90;;;;;;4961978;28;20413;-62
2023/07/14 03:21:11;;;;;;;11.93;8.90;;;15.60;99.90;;;;;;4982025;28;20509;-66
2023/07/14 03:23:36;;;;;;;12.75;9.13;;;15.50;99.90;;;;;;5012085;28;20447;-66
2023/07/14 03:26:05;;;;;;;11.48;8.63;;;15.50;99.90;;;;;;4982764;28;20416;-65
2023/07/14 03:28:32;;;;;;;12.90;8.70;;;15.50;99.90;;;;;;5022628;28;20423;-66
2023/07/14 03:30:58;;;;;;;11.65;9.15;;;15.50;99.90;;;;;;4953617;28;20454;-62
2023/07/14 03:33:24;;;;;;;10.88;8.52;;;15.50;99.90;;;;;;4976626;28;20447;-65
2023/07/14 03:35:50;;;;;;;11.63;8.53;;;15.50;99.90;;;;;;4962711;28;20422;-64
2023/07/14 03:38:16;;;;;;;11.57;8.32;;;15.50;99.90;;;;;;5034346;28;20419;-64
2023/07/14 03:40:42;;;;;;;11.88;8.85;;;15.50;99.90;;;;;;5015823;28;20556;-65
2023/07/14 03:43:08;;;;;;;11.03;8.80;;;15.50;99.90;;;;;;4978815;28;20961;-66
2023/07/14 03:45:34;;;;;;;12.95;8.75;;;15.50;99.90;;;;;;4976297;28;20813;-66
2023/07/14 03:48:00;;;;;;;13.27;8.95;;;15.50;99.90;;;;;;4972932;28;20408;-65
2023/07/14 03:50:26;;;;;;;12.00;8.77;;;15.50;99.90;;;;;;4963428;28;20461;-66
2023/07/14 03:52:52;;;;;;;12.67;9.27;;;15.50;99.90;;;;;;4981394;28;20465;-64
2023/07/14 03:55:18;;;;;;;12.73;9.17;;;15.50;99.90;;;;;;4984061;28;20426;-66
2023/07/14 03:57:43;;;;;;;11.13;8.10;;;15.00;99.90;;;;;;4967838;28;20938;-65
2023/07/14 04:00:14;;;;;;;12.20;8.48;;;15.50;99.90;;;;;;4979146;28;20418;-65
2023/07/14 04:02:44;;;;;;;10.10;8.23;;;15.60;99.90;;;;;;4989129;28;20418;-66
2023/07/14 04:05:11;;;;;;;10.70;7.87;;;15.60;99.90;;;;;;4977577;28;20437;-66
2023/07/14 04:07:39;;;;;;;11.48;8.27;;;15.70;99.90;;;;;;4980677;28;20429;-64
2023/07/14 04:10:05;;;;;;;12.95;8.07;;;15.60;99.90;;;;;;4980308;28;20927;-63
2023/07/14 04:12:32;;;;;;;13.05;8.65;;;15.60;99.90;;;;;;4973999;28;20412;-63
2023/07/14 04:14:58;;;;;;;11.30;8.32;;;15.60;99.90;;;;;;4961206;28;20407;-63
2023/07/14 04:17:24;;;;;;;11.90;8.50;;;15.70;99.90;;;;;;4984679;28;20445;-63
2023/07/14 04:19:50;;;;;;;12.17;8.30;;;15.70;99.90;;;;;;4974350;28;20883;-63
2023/07/14 04:22:17;;;;;;;12.55;8.02;;;15.70;99.90;;;;;;4977978;28;20451;-62
2023/07/14 04:24:43;;;;;;;14.05;8.60;;;15.80;99.90;;;;;;5010649;28;20788;-68
2023/07/14 04:27:09;;;;;;;13.67;8.63;;;15.80;99.90;;;;;;4995286;28;20481;-63
2023/07/14 04:29:34;;;;;;;14.52;8.70;;;15.80;99.90;;;;;;4978709;28;20768;-62
2023/07/14 04:32:00;;;;;;;14.05;8.77;;;15.80;99.90;;;;;;4962301;28;20413;-63
2023/07/14 04:34:26;;;;;;;12.18;8.57;;;15.80;99.90;;;;;;4978897;28;20413;-63
2023/07/14 04:36:53;;;;;;;13.82;9.10;;;15.80;99.90;;;;;;4970507;28;20835;-63
2023/07/14 04:39:19;;;;;;;13.48;8.95;;;15.90;99.90;;;;;;4977103;28;20406;-64
2023/07/14 04:41:45;;;;;;;11.48;8.98;;;15.90;99.90;;;;;;5018132;28;20422;-63
2023/07/14 04:44:14;;;;;;;11.93;9.10;;;16.00;99.90;;;;;;4977425;28;20489;-63
2023/07/14 04:46:41;;;;;;;12.95;9.50;;;16.00;99.90;;;;;;4959199;28;20416;-63
2023/07/14 04:49:07;;;;;;;11.88;9.20;;;16.00;99.90;;;;;;4977719;28;20477;-64
2023/07/14 04:51:34;;;;;;;13.25;9.50;;;16.10;99.90;;;;;;4955181;28;20462;-63
2023/07/14 04:54:00;;;;;;;12.65;9.40;;;16.10;99.90;;;;;;4984569;28;20425;-66
2023/07/14 04:56:26;;;;;;;12.95;9.13;;;16.10;99.90;;;;;;4962241;28;20831;-66
2023/07/14 04:58:52;;;;;;;16.02;9.27;;;16.10;99.90;;;;;;4986942;28;20502;-63
2023/07/14 05:01:18;;;;;;;12.85;9.40;;;16.20;99.90;;;;;;4984073;28;20794;-63
2023/07/14 05:03:44;;;;;;;12.93;9.40;;;15.70;99.90;;;;;;4965333;28;20438;-63
2023/07/14 05:06:10;;;;;;;13.80;9.27;;;16.20;99.90;;;;;;4981494;28;20933;-63
2023/07/14 05:08:36;;;;;;;14.38;9.82;;;16.20;99.90;;;;;;5006489;28;20918;-63
2023/07/14 05:11:02;;;;;;;12.30;9.90;;;16.30;99.90;;;;;;4976590;28;20491;-63
2023/07/14 05:13:28;;;;;;;12.02;9.85;;;16.30;99.90;;;;;;4983969;28;20472;-63
2023/07/14 05:15:56;;;;;;;13.85;10.20;;;16.40;99.90;;;;;;4982848;28;20410;-63
2023/07/14 05:18:21;;;;;;;15.03;10.37;;;16.40;99.90;;;;;;4984779;28;20417;-63
2023/07/14 05:20:47;;;;;;;13.70;10.40;;;16.40;99.90;;;;;;4982118;28;20989;-63
2023/07/14 05:23:13;;;;;;;13.80;10.83;;;16.50;99.90;;;;;;4974966;28;20407;-68
2023/07/14 05:25:39;;;;;;;13.40;10.70;;;16.50;99.90;;;;;;4950499;28;20924;-68
2023/07/14 05:28:05;;;;;;;12.97;10.47;;;16.50;99.90;;;;;;4960531;28;20436;-63
2023/07/14 05:30:31;;;;;;;14.60;10.38;;;16.50;99.90;;;;;;5021464;28;20832;-65
2023/07/14 05:32:57;;;;;;;14.05;11.35;;;16.60;99.90;;;;;;4954319;28;20498;-67
2023/07/14 05:35:23;;;;;;;14.70;11.27;;;16.60;99.90;;;;;;4959053;28;20539;-63
2023/07/14 05:37:48;;;;;;;15.73;11.40;;;16.50;99.90;;;;;;4986218;28;20407;-63
2023/07/14 05:40:16;;;;;;;18.00;12.15;;;16.60;99.90;;;;;;4960251;28;20442;-62
2023/07/14 05:42:42;;;;;;;14.45;11.32;;;16.60;99.90;;;;;;4944884;28;20438;-64
2023/07/14 05:45:09;;;;;;;15.75;11.55;;;16.60;99.90;;;;;;4980791;28;20920;-66
2023/07/14 05:47:37;;;;;;;14.50;11.52;;;16.60;99.90;;;;;;4976233;28;20452;-63
2023/07/14 05:50:04;;;;;;;15.82;11.93;;;16.60;99.90;;;;;;4970695;28;20430;-63
2023/07/14 05:52:30;;;;;;;13.95;11.57;;;16.60;99.90;;;;;;5033281;28;20413;-64
2023/07/14 05:54:55;;;;;;;14.80;12.40;;;16.60;99.90;;;;;;4998483;28;20419;-63
2023/07/14 05:57:21;;;;;;;15.70;11.67;;;16.60;99.90;;;;;;4984743;28;20696;-64
2023/07/14 05:59:47;;;;;;;17.13;12.13;;;16.60;99.90;;;;;;5009940;28;20403;-64
2023/07/14 06:02:14;;;;;;;16.00;12.30;;;16.70;99.90;;;;;;5008735;28;20501;-65
2023/07/14 06:04:43;;;;;;;17.53;12.67;;;16.70;99.90;;;;;;4993351;28;20434;-64
2023/07/14 06:07:10;;;;;;;15.07;11.82;;;16.70;99.90;;;;;;5031608;28;20409;-64
2023/07/14 06:09:37;;;;;;;17.23;12.68;;;16.70;99.90;;;;;;4984603;28;20907;-64
2023/07/14 06:12:05;;;;;;;15.65;12.55;;;16.70;99.90;;;;;;4966263;28;20528;-64
2023/07/14 06:14:32;;;;;;;17.67;12.00;;;16.70;99.90;;;;;;4997640;28;20430;-64
2023/07/14 06:16:58;;;;;;;16.55;12.35;;;16.80;99.90;;;;;;4982316;28;20495;-64
2023/07/14 06:19:24;;;;;;;15.55;12.40;;;16.80;99.90;;;;;;4983359;28;20437;-64
2023/07/14 06:21:50;;;;;;;15.43;11.97;;;16.80;99.90;;;;;;4993988;28;21123;-66
2023/07/14 06:24:16;;;;;;;17.27;12.57;;;16.80;99.90;;;;;;4982125;28;20539;-65
2023/07/14 06:26:42;;;;;;;17.20;12.27;;;16.80;99.90;;;;;;4988838;28;20493;-66
2023/07/14 06:29:07;;;;;;;15.20;12.47;;;16.90;99.90;;;;;;4978880;28;20413;-66
2023/07/14 06:31:34;;;;;;;16.65;12.32;;;16.90;99.90;;;;;;4976644;28;20409;-65
2023/07/14 06:33:59;;;;;;;16.20;12.40;;;17.00;99.90;;;;;;4983735;28;20422;-66
2023/07/14 06:36:25;;;;;;;17.65;12.52;;;17.00;99.90;;;;;;4975127;28;20788;-65
2023/07/14 06:38:51;;;;;;;16.13;12.68;;;17.00;99.90;;;;;;4963612;28;20940;-65
2023/07/14 06:41:17;;;;;;;16.67;12.60;;;17.00;99.90;;;;;;4982661;28;20463;-66
2023/07/14 06:43:43;;;;;;;17.00;12.13;;;17.10;99.90;;;;;;5013045;28;20455;-67
2023/07/14 06:46:08;;;;;;;16.45;11.40;;;17.10;99.90;;;;;;4980398;28;20899;-66
2023/07/14 06:48:34;;;;;;;13.63;11.43;;;17.20;99.90;;;;;;4969970;28;20484;-66
2023/07/14 06:51:00;;;;;;;15.30;11.93;;;17.20;99.90;;;;;;4980682;28;20414;-66
2023/07/14 06:53:25;;;;;;;15.00;11.70;;;17.20;99.90;;;;;;4969320;28;20411;-65
2023/07/14 06:55:52;;;;;;;18.17;12.27;;;17.20;99.90;;;;;;4962151;28;20581;-63
2023/07/14 06:58:17;;;;;;;16.15;11.88;;;17.30;99.90;;;;;;4978230;28;20434;-63
2023/07/14 07:00:43;;;;;;;17.90;12.07;;;17.30;99.90;;;;;;4986077;28;20419;-63
2023/07/14 07:03:08;;;;;;;14.40;10.27;;;17.30;99.90;;;;;;4956132;28;20435;-66
2023/07/14 07:05:39;;;;;;;13.73;9.40;;;17.40;99.90;;;;;;4971257;28;20435;-65
2023/07/14 07:08:08;;;;;;;12.97;9.27;;;17.40;99.90;;;;;;4974511;28;20797;-66
2023/07/14 07:10:34;;;;;;;13.48;9.73;;;17.50;99.90;;;;;;4971275;28;20500;-66
2023/07/14 07:12:59;;;;;;;14.57;9.20;;;17.50;99.90;;;;;;4980448;28;21109;-66
2023/07/14 07:15:25;;;;;;;14.02;9.07;;;17.60;99.90;;;;;;4975425;28;20422;-66
2023/07/14 07:17:50;;;;;;;11.93;8.07;;;17.60;99.90;;;;;;4987090;28;20429;-65
2023/07/14 07:20:16;;;;;;;11.47;8.60;;;17.60;99.90;;;;;;5022073;28;20429;-65
2023/07/14 07:22:45;;;;;;;11.60;7.33;;;17.70;99.90;;;;;;4973775;28;20947;-63
2023/07/14 07:25:11;;;;;;;11.32;6.72;;;17.80;99.90;;;;;;4993744;28;20476;-65
2023/07/14 07:27:36;;;;;;;8.45;5.55;;;17.80;99.90;;;;;;4975108;28;20416;-65
2023/07/14 07:30:03;;;;;;;9.23;6.18;;;17.80;99.90;;;;;;4978308;28;20448;-66
2023/07/14 07:32:29;;;;;;;10.85;6.13;;;17.90;99.90;;;;;;4953303;28;20419;-66
2023/07/14 07:34:59;;;;;;;9.65;5.35;;;17.90;99.90;;;;;;4985508;28;20971;-66
2023/07/14 07:37:25;;;;;;;12.05;5.68;;;17.90;99.90;;;;;;4976844;28;20507;-64
2023/07/14 07:39:53;;;;;;;8.33;4.97;;;18.00;99.90;;;;;;4970369;28;20453;-66
2023/07/14 07:42:19;;;;;;;11.10;4.95;;;18.10;99.90;;;;;;4986926;28;20405;-65
2023/07/14 07:44:45;;;;;;;9.15;5.18;;;18.10;99.90;;;;;;4964087;28;20511;-64
2023/07/14 07:47:10;;;;;;;9.13;5.27;;;18.10;99.90;;;;;;4981845;28;20447;-66
2023/07/14 07:49:36;;;;;;;8.57;5.40;;;18.20;99.90;;;;;;4963108;28;20889;-66
2023/07/14 07:52:03;;;;;;;10.77;5.10;;;18.20;99.90;;;;;;4964384;28;20437;-66
2023/07/14 07:54:28;;;;;;;9.57;5.40;;;18.30;99.90;;;;;;4975605;28;20442;-66
2023/07/14 07:56:54;;;;;;;8.98;5.50;;;18.30;99.90;;;;;;4970453;28;20439;-66
2023/07/14 07:59:19;;;;;;;9.88;5.05;;;18.40;99.90;;;;;;4951266;28;20981;-66
2023/07/14 08:01:45;;;;;;;8.10;4.80;;;18.40;99.90;;;;;;4985200;28;20931;-63
2023/07/14 08:04:12;;;;;;;9.43;5.20;;;18.40;99.90;;;;;;4985403;28;20418;-66
2023/07/14 08:06:38;;;;;;;7.90;4.40;;;18.50;99.90;;;;;;4964953;28;20422;-65
2023/07/14 08:09:05;;;;;;;9.55;5.20;;;18.60;99.90;;;;;;4986735;28;20403;-65
2023/07/14 08:11:31;;;;;;;10.25;5.80;;;18.70;99.90;;;;;;4975934;28;20504;-66
2023/07/14 08:14:01;;;;;;;8.77;4.38;;;18.80;99.90;;;;;;4955748;28;20550;-66
2023/07/14 08:16:27;;;;;;;7.07;3.85;;;18.80;99.90;;;;;;4973634;28;20906;-66
2023/07/14 08:18:53;;;;;;;7.32;3.97;;;18.90;99.90;;;;;;4976983;28;20432;-65
2023/07/14 08:21:18;;;;;;;8.88;3.83;;;19.00;99.90;;;;;;4964034;28;20431;-65
2023/07/14 08:23:44;;;;;;;8.82;3.78;;;19.10;99.90;;;;;;4981709;28;20430;-65
2023/07/14 08:26:10;;;;;;;7.97;4.03;;;19.20;99.90;;;;;;5048991;28;20442;-64
2023/07/14 08:28:36;;;;;;;7.63;3.60;;;19.40;99.90;;;;;;5014382;28;20434;-65
2023/07/14 08:31:08;;;;;;;7.65;4.00;;;19.50;99.90;;;;;;4980355;28;20912;-65
2023/07/14 08:33:35;;;;;;;8.63;4.15;;;19.60;99.90;;;;;;4971795;28;20419;-64
2023/07/14 08:36:03;;;;;;;9.18;4.30;;;19.80;99.90;;;;;;4960914;28;20781;-65
2023/07/14 08:38:33;;;;;;;7.68;3.83;;;20.10;99.90;;;;;;4961438;28;20475;-64
2023/07/14 08:41:29;;;;;;;7.43;4.20;;;20.30;99.90;;;;;;4957053;28;20774;-65
2023/07/14 08:44:10;;;;;;;9.30;4.10;;;20.60;99.90;;;;;;4965367;28;20577;-65
2023/07/14 08:46:44;;;;;;;7.88;4.30;;;20.70;99.90;;;;;;4973642;28;20411;-65
2023/07/14 08:49:22;;;;;;;10.13;4.28;;;20.90;99.90;;;;;;4975171;28;20476;-65
2023/07/14 08:52:03;;;;;;;6.65;3.70;;;21.10;99.90;;;;;;4970308;28;20465;-65
2023/07/14 08:54:41;;;;;;;6.63;3.83;;;21.30;99.70;;;;;;4955787;28;20424;-65
2023/07/14 08:57:16;;;;;;;7.68;3.90;;;21.40;98.90;;;;;;4980816;28;20414;-65
2023/07/14 08:59:42;;;;;;;8.05;4.00;;;21.30;98.40;;;;;;4978087;28;20918;-65
2023/07/14 09:02:27;;;;;;;6.72;3.60;;;21.20;98.10;;;;;;4983487;28;20420;-65
2023/07/14 09:05:03;;;;;;;8.15;3.90;;;21.10;98.30;;;;;;4949490;28;20490;-65
2023/07/14 09:07:29;;;;;;;7.97;4.07;;;21.10;98.10;;;;;;4979654;28;20403;-65
2023/07/14 09:09:55;;;;;;;7.75;4.20;;;21.20;99.00;;;;;;4962233;28;20944;-65
2023/07/14 09:12:42;;;;;;;8.05;4.20;;;21.20;99.20;;;;;;4994876;28;20453;-65
2023/07/14 09:15:11;;;;;;;7.95;4.35;;;21.40;98.60;;;;;;4987083;28;20760;-65
2023/07/14 09:18:10;;;;;;;8.35;4.05;;;21.50;98.50;;;;;;4976311;28;20403;-65
2023/07/14 09:21:04;;;;;;;7.38;3.55;;;21.60;97.90;;;;;;4983965;28;20485;-65
2023/07/14 09:24:08;;;;;;;7.55;3.88;;;21.80;97.10;;;;;;4961566;28;20499;-65
2023/07/14 09:26:39;;;;;;;7.35;3.63;;;22.00;97.30;;;;;;4953101;28;20610;-65
2023/07/14 09:29:29;;;;;;;9.65;4.10;;;22.30;96.70;;;;;;4974870;28;20393;-65
2023/07/14 09:32:01;;;;;;;7.32;4.07;;;22.50;95.90;;;;;;4982981;28;20395;-65
2023/07/14 09:34:30;;;;;;;8.00;4.00;;;22.60;96.10;;;;;;4978433;28;20810;-65
2023/07/14 09:36:56;;;;;;;8.30;4.15;;;22.60;96.40;;;;;;4980960;28;20406;-65
2023/07/14 09:39:32;;;;;;;6.90;4.30;;;22.60;95.90;;;;;;4971929;28;20429;-65
2023/07/14 09:42:00;;;;;;;9.00;4.00;;;22.40;95.00;;;;;;4960980;28;20456;-65
2023/07/14 09:44:26;;;;;;;5.82;4.05;;;22.20;95.40;;;;;;4977773;28;20428;-65
2023/07/14 09:46:53;;;;;;;6.13;3.90;;;22.00;95.70;;;;;;4969654;28;20429;-65
2023/07/14 09:49:30;;;;;;;7.55;4.00;;;21.80;95.60;;;;;;4968170;28;20412;-65
2023/07/14 09:52:12;;;;;;;7.85;4.20;;;21.70;95.80;;;;;;4978195;28;20408;-65
2023/07/14 09:54:49;;;;;;;7.88;3.90;;;21.50;95.70;;;;;;4984479;28;20549;-65
2023/07/14 09:57:18;;;;;;;9.65;4.22;;;21.50;96.20;;;;;;4986834;28;20441;-65
2023/07/14 09:59:53;;;;;;;7.40;3.70;;;21.50;95.60;;;;;;4986002;28;20506;-65
2023/07/14 10:02:26;;;;;;;6.57;3.70;;;21.60;95.30;;;;;;4964576;28;20410;-65
2023/07/14 10:04:58;;;;;;;6.72;3.50;;;21.70;95.80;;;;;;4980606;28;20426;-65
2023/07/14 10:07:27;;;;;;;5.72;3.58;;;21.90;95.30;;;;;;5022309;28;20781;-64
2023/07/14 10:10:07;;;;;;;6.30;3.90;;;22.20;96.30;;;;;;4973898;28;20713;-64
2023/07/14 10:12:48;;;;;;;7.50;4.07;;;22.50;93.90;;;;;;4961008;28;20720;-65
2023/07/14 10:15:23;;;;;;;7.22;3.90;;;22.70;93.30;;;;;;4979609;28;20813;-65
2023/07/14 10:17:53;;;;;;;7.05;3.40;;;22.90;93.00;;;;;;4977222;28;20498;-65
2023/07/14 10:20:22;;;;;;;5.10;3.20;;;22.90;93.30;;;;;;4979789;28;20919;-65
2023/07/14 10:22:54;;;;;;;7.30;3.58;;;22.90;93.10;;;;;;4974763;28;20408;-65
2023/07/14 10:25:21;;;;;;;5.60;3.42;;;22.90;92.70;;;;;;4970235;28;20983;-65
2023/07/14 10:28:06;;;;;;;6.95;3.67;;;23.00;92.80;;;;;;4982337;28;20415;-64
2023/07/14 10:30:59;;;;;;;5.72;3.30;;;22.90;93.20;;;;;;4983393;28;20922;-65
2023/07/14 10:33:49;;;;;;;5.70;3.55;;;22.90;92.10;;;;;;4974135;28;20763;-64
2023/07/14 10:36:24;;;;;;;5.80;3.58;;;23.00;92.60;;;;;;4961047;28;20415;-64
2023/07/14 10:39:06;;;;;;;6.43;3.20;;;23.10;93.00;;;;;;4958283;28;20413;-65
2023/07/14 10:41:35;;;;;;;6.05;3.22;;;23.00;91.80;;;;;;4976096;28;20399;-65
2023/07/14 10:44:15;;;;;;;5.95;3.00;;;23.00;91.60;;;;;;4970886;28;20428;-65
2023/07/14 10:46:50;;;;;;;5.80;2.95;;;22.80;90.90;;;;;;4981068;28;20920;-64
2023/07/14 10:49:15;;;;;;;6.57;3.15;;;22.70;91.10;;;;;;4984896;28;20760;-66
2023/07/14 10:51:47;;;;;;;5.83;3.13;;;22.50;91.10;;;;;;4983944;28;20464;-65
2023/07/14 10:54:21;;;;;;;6.78;3.42;;;22.40;91.90;;;;;;4982147;28;20490;-64
2023/07/14 10:56:55;;;;;;;6.55;3.30;;;22.40;91.80;;;;;;4964194;28;20784;-65
2023/07/14 10:59:48;;;;;;;6.32;3.25;;;22.30;92.40;;;;;;5002859;28;20433;-65
2023/07/14 11:02:34;;;;;;;6.07;3.42;;;22.20;93.20;;;;;;4983111;28;20928;-65
2023/07/14 11:05:10;;;;;;;7.17;3.10;;;22.10;93.80;;;;;;4977606;28;20968;-66
2023/07/14 11:07:36;;;;;;;6.32;3.38;;;22.20;94.70;;;;;;4958404;28;20739;-65
2023/07/14 11:10:12;;;;;;;5.87;3.37;;;22.30;94.10;;;;;;4980140;28;20403;-65
2023/07/14 11:12:55;;;;;;;7.03;3.75;;;22.40;94.00;;;;;;4977837;28;20391;-65
2023/07/14 11:15:26;;;;;;;6.85;3.40;;;22.30;93.60;;;;;;4984499;28;20418;-65
2023/07/14 11:18:30;;;;;;;6.03;3.45;;;22.10;93.80;;;;;;4988041;28;20406;-64
2023/07/14 11:21:17;;;;;;;6.32;3.50;;;22.00;94.20;;;;;;4964233;28;20412;-65
2023/07/14 11:24:00;;;;;;;8.13;3.88;;;21.90;94.30;;;;;;4972483;28;20474;-65
2023/07/14 11:26:49;;;;;;;8.13;3.80;;;21.90;95.10;;;;;;4963811;28;20428;-64
2023/07/14 11:29:20;;;;;;;7.30;4.00;;;22.00;95.50;;;;;;4980836;28;20402;-65
2023/07/14 11:31:56;;;;;;;6.82;3.58;;;22.00;95.20;;;;;;4966719;28;20415;-64
2023/07/14 11:34:42;;;;;;;7.63;3.72;;;22.00;95.40;;;;;;4966392;28;20503;-64
2023/07/14 11:37:25;;;;;;;7.95;3.83;;;22.00;95.70;;;;;;4977277;28;20454;-64
2023/07/14 11:39:56;;;;;;;7.53;4.13;;;22.00;95.20;;;;;;4963207;28;20900;-65
2023/07/14 11:42:33;;;;;;;6.72;4.00;;;22.00;94.90;;;;;;4983240;28;20537;-65
2023/07/14 11:45:03;;;;;;;7.63;4.18;;;22.00;95.30;;;;;;4978216;28;20429;-65
2023/07/14 11:47:41;;;;;;;7.05;4.00;;;22.00;95.30;;;;;;4973206;28;20478;-64
2023/07/14 11:50:16;;;;;;;6.00;3.60;;;22.00;95.70;;;;;;4971938;28;20995;-64
2023/07/14 11:53:05;;;;;;;7.63;4.07;;;22.10;95.80;;;;;;4987916;28;20394;-65
2023/07/14 11:55:32;;;;;;;8.27;4.30;;;22.30;95.40;;;;;;4964272;28;20416;-65
2023/07/14 11:58:28;;;;;;;7.53;4.30;;;22.40;94.90;;;;;;4973688;28;20475;-64
2023/07/14 12:01:06;;;;;;;7.78;4.20;;;22.40;95.00;;;;;;4976613;28;20786;-65
2023/07/14 12:03:43;;;;;;;7.65;4.65;;;22.40;95.40;;;;;;4988797;28;20483;-65
2023/07/14 12:06:19;;;;;;;8.32;5.15;;;22.40;95.00;;;;;;4972120;28;20430;-64
2023/07/14 12:09:04;;;;;;;8.67;5.20;;;22.30;95.00;;;;;;4960500;28;20604;-64
2023/07/14 12:11:39;;;;;;;12.15;5.50;;;22.20;95.60;;;;;;4979961;28;20892;-65
2023/07/14 12:14:23;;;;;;;8.70;5.00;;;22.30;95.80;;;;;;4986969;28;20417;-64
2023/07/14 12:16:49;;;;;;;9.75;5.32;;;22.30;96.00;;;;;;4989671;28;20419;-65
2023/07/14 12:19:27;;;;;;;11.90;4.55;;;22.60;95.60;;;;;;4982529;28;20433;-64
2023/07/14 12:22:08;;;;;;;8.90;4.60;;;22.90;96.40;;;;;;4975002;28;20743;-64
2023/07/14 12:24:50;;;;;;;8.55;4.80;;;23.10;95.70;;;;;;4968711;28;21007;-64
2023/07/14 12:27:34;;;;;;;8.57;5.10;;;23.20;94.20;;;;;;4984709;28;20419;-65
2023/07/14 12:30:20;;;;;;;8.00;5.05;;;23.10;94.00;;;;;;4977626;28;20424;-64
2023/07/14 12:32:46;;;;;;;7.55;4.70;;;23.00;93.60;;;;;;4981436;28;20407;-65
2023/07/14 12:35:17;;;;;;;10.75;5.10;;;23.00;93.30;;;;;;4975569;28;20497;-64
2023/07/14 12:37:44;;;;;;;8.45;5.20;;;23.00;93.60;;;;;;4982348;28;21013;-65
2023/07/14 12:40:15;;;;;;;7.47;4.13;;;23.00;94.20;;;;;;4982112;28;20410;-65
2023/07/14 12:42:43;;;;;;;8.25;4.25;;;23.00;93.70;;;;;;4966251;28;20437;-65
2023/07/14 12:45:13;;;;;;;8.85;4.47;;;23.00;93.50;;;;;;4986448;28;20430;-66
2023/07/14 12:47:46;;;;;;;10.35;4.78;;;23.10;93.70;;;;;;4982860;28;20421;-65
2023/07/14 12:50:17;;;;;;;9.18;4.30;;;23.10;93.70;;;;;;4964693;28;20431;-65
2023/07/14 12:52:47;;;;;;;8.90;4.87;;;23.20;93.60;;;;;;4986963;28;20746;-65
2023/07/14 12:55:16;;;;;;;7.30;4.47;;;23.20;93.60;;;;;;4944812;28;20463;-64